剖析機場天氣預報

 

 以電碼形式及簡文形式發出之機場天氣預報

TAF

例子:

TAF VMMC 152200Z 160024 17025G40KT 1000 TSRA SCT010CB BKN020 TEMPO 0812 13018KT 9000 BKN020=

解說:

於本月15日發出之澳門國際機場之機場天氣預報發出時間為2200協調世界時,有效時段為本月16日,由0000至2400協調世界時。地面風方向170度,風速25海里/小時,陣風達40海里/小時;能見度1公里;天氣狀況為中度雷雨;有3至4份高1000呎含積雨雲之雲層,有5至7份高2000呎之雲層;於08至12協調世界時期間間中出現以下天氣情況:地面風方向130度,風速18海里/小時;能見度9公里;有5至7份高2000呎之雲層。

 

 電碼的意義 (TAF)

報告內容

例子

意義

報告種類之識別

TAF

機場天氣預報。

機場代碼

VMMC

機場代碼由4個字母組成。
發出預報地點之日期及時間

152200Z

每個機場天氣預報需包括預報來源地的日期和時間。
有效的日期及時間

160024

預報應包括有效時間內之時段。
地面風

17025G40KT

當預測最高風速將超過平均風速10海里/小時或以上時,最大陣風應以譂明。

能見度

CAVOK

1000

為水平能見度。達10公里或以上時應記作9999。

CAVOK - 能見度為10公里或以上;且在1500公尺(5000呎)以下沒有雲層,且不含積雨雲,當時亦沒有降水、雷暴、沙暴、塵暴、淺霧、或飄浮的塵、沙或雪等天氣現象。

天氣狀況

TSRA

強度或遠近程度: - = 輕度、 + = 大、 VC = 鄰近;
特徵: MI = 淺薄、 BC = 零散、 PR = 部分、SHRA = 驟雨、TS = 雷暴;
降水: DZ = 毛毛雨、 RA = 雨;
能見度阻礙物: BR = 薄霧、 FG = 霧、 HZ = 煙霞。

雲層狀況 / 雲層高度

SCT010CB  BKN020

每層雲量多寡以「份」的形式表現,一份即天空覆蓋面的八分之一。FEW:1至2份;SCT:3至4份;BKN:5至7份;OVC:8份(密雲);  SKC:晴空。雲底高度以一百尺為單位。
在有效時段內以下一或多項要素將有顯著改變

TEMPO 0812 13018KT 9000 BKN020

TEMPO = 間中;
BECMG = 逐漸轉變;
FM = 由此時刻起;
PROB = 可能性。